createdAt,value
2023-06-16T00:01:55.197Z,9.48
2023-06-16T00:04:27.210Z,9.70
2023-06-16T00:06:57.698Z,9.23
2023-06-16T00:09:27.688Z,13.00
2023-06-16T00:11:57.759Z,9.23
2023-06-16T00:14:28.733Z,9.93
2023-06-16T00:16:58.741Z,10.25
2023-06-16T00:19:28.734Z,11.77
2023-06-16T00:22:01.205Z,11.83
2023-06-16T00:24:30.442Z,11.77
2023-06-16T00:26:59.865Z,10.20
2023-06-16T00:29:32.400Z,10.87
2023-06-16T00:32:01.699Z,12.20
2023-06-16T00:34:31.519Z,10.40
2023-06-16T00:37:01.050Z,11.63
2023-06-16T00:39:30.418Z,11.10
2023-06-16T00:42:01.811Z,10.73
2023-06-16T00:44:33.349Z,10.77
2023-06-16T00:47:03.961Z,13.60
2023-06-16T00:49:33.535Z,11.23
2023-06-16T00:52:04.198Z,12.23
2023-06-16T00:54:34.779Z,13.17
2023-06-16T00:57:06.645Z,10.07
2023-06-16T00:59:37.441Z,9.60
2023-06-16T01:02:07.650Z,10.67
2023-06-16T01:04:39.126Z,10.17
2023-06-16T01:07:13.713Z,11.33
2023-06-16T01:09:49.029Z,10.00
2023-06-16T01:12:27.926Z,12.23
2023-06-16T01:15:06.752Z,10.67
2023-06-16T01:17:40.828Z,10.73
2023-06-16T01:20:13.739Z,12.13
2023-06-16T01:23:16.117Z,9.90
2023-06-16T01:25:49.829Z,11.87
2023-06-16T01:28:23.941Z,11.10
2023-06-16T01:30:55.389Z,11.70
2023-06-16T01:33:27.052Z,10.17
2023-06-16T01:35:57.769Z,11.00
2023-06-16T01:38:29.322Z,14.83
2023-06-16T01:41:02.237Z,11.57
2023-06-16T01:43:35.208Z,12.87
2023-06-16T01:46:05.486Z,12.93
2023-06-16T01:48:35.212Z,10.67
2023-06-16T01:51:04.837Z,16.20
2023-06-16T01:53:34.465Z,11.53
2023-06-16T01:56:05.439Z,10.50
2023-06-16T01:58:34.888Z,11.93
2023-06-16T02:01:10.701Z,12.33
2023-06-16T02:03:44.742Z,14.60
2023-06-16T02:06:19.926Z,10.23
2023-06-16T02:08:50.830Z,12.00
2023-06-16T02:11:22.033Z,11.23
2023-06-16T02:13:52.280Z,11.80
2023-06-16T02:16:22.186Z,12.53
2023-06-16T02:18:55.389Z,11.73
2023-06-16T02:21:24.966Z,11.87
2023-06-16T02:23:54.871Z,11.40
2023-06-16T02:26:26.303Z,14.47
2023-06-16T02:28:55.894Z,11.97
2023-06-16T02:31:25.194Z,12.70
2023-06-16T02:33:57.437Z,13.23
2023-06-16T02:36:27.068Z,13.03
2023-06-16T02:38:56.604Z,14.80
2023-06-16T02:41:27.909Z,12.30
2023-06-16T02:43:58.313Z,12.73
2023-06-16T02:46:27.649Z,12.10
2023-06-16T02:48:57.147Z,12.27
2023-06-16T02:51:26.571Z,11.70
2023-06-16T02:53:56.085Z,13.73
2023-06-16T02:56:30.316Z,12.50
2023-06-16T02:59:00.267Z,11.90
2023-06-16T03:01:32.418Z,12.63
2023-06-16T03:04:18.603Z,12.07
2023-06-16T03:07:04.346Z,14.13
2023-06-16T03:09:38.482Z,14.63
2023-06-16T03:12:12.754Z,12.20
2023-06-16T03:14:52.662Z,12.97
2023-06-16T03:17:23.177Z,13.43
2023-06-16T03:19:53.432Z,14.33
2023-06-16T03:22:38.932Z,14.60
2023-06-16T03:25:09.245Z,12.53
2023-06-16T03:27:47.370Z,12.43
2023-06-16T03:30:26.837Z,12.10
2023-06-16T03:33:08.868Z,13.27
2023-06-16T03:35:40.516Z,12.50
2023-06-16T03:38:17.819Z,13.38
2023-06-16T03:40:48.632Z,12.80
2023-06-16T03:43:19.474Z,11.53
2023-06-16T03:45:49.985Z,12.33
2023-06-16T03:48:20.527Z,13.10
2023-06-16T03:50:55.866Z,12.00
2023-06-16T03:53:25.381Z,13.07
2023-06-16T03:55:54.643Z,13.88
2023-06-16T03:58:27.153Z,13.60
2023-06-16T04:00:58.360Z,14.90
2023-06-16T04:03:27.904Z,12.88
2023-06-16T04:05:58.185Z,12.30
2023-06-16T04:08:28.305Z,11.63
2023-06-16T04:10:59.902Z,11.50
2023-06-16T04:13:32.870Z,11.73
2023-06-16T04:16:06.524Z,11.23
2023-06-16T04:18:36.578Z,11.15
2023-06-16T04:21:05.952Z,11.93
2023-06-16T04:23:37.248Z,10.77
2023-06-16T04:26:07.785Z,11.65
2023-06-16T04:28:44.386Z,11.48
2023-06-16T04:31:17.009Z,11.93
2023-06-16T04:33:46.842Z,10.93
2023-06-16T04:36:18.451Z,10.55
2023-06-16T04:38:50.549Z,11.13
2023-06-16T04:41:20.386Z,10.35
2023-06-16T04:43:51.558Z,13.57
2023-06-16T04:46:21.317Z,10.75
2023-06-16T04:48:50.938Z,10.65
2023-06-16T04:51:21.092Z,11.55
2023-06-16T04:53:51.325Z,11.38
2023-06-16T04:56:20.824Z,13.35
2023-06-16T04:58:52.229Z,10.20
2023-06-16T05:01:21.836Z,10.50
2023-06-16T05:03:51.286Z,11.45
2023-06-16T05:06:20.686Z,10.82
2023-06-16T05:08:49.965Z,13.55
2023-06-16T05:11:19.589Z,11.95
2023-06-16T05:13:49.012Z,10.00
2023-06-16T05:16:19.776Z,11.80
2023-06-16T05:18:49.139Z,12.85
2023-06-16T05:21:21.637Z,20.02
2023-06-16T05:23:52.578Z,12.73
2023-06-16T05:26:24.146Z,13.13
2023-06-16T05:28:53.659Z,13.65
2023-06-16T05:31:26.676Z,10.85
2023-06-16T05:33:57.246Z,12.20
2023-06-16T05:36:26.936Z,10.98
2023-06-16T05:38:57.357Z,11.10
2023-06-16T05:41:27.745Z,9.63
2023-06-16T05:43:59.151Z,12.20
2023-06-16T05:46:30.281Z,10.55
2023-06-16T05:49:00.960Z,10.25
2023-06-16T05:51:30.222Z,10.75
2023-06-16T05:53:59.946Z,9.77
2023-06-16T05:56:29.764Z,12.23
2023-06-16T05:58:59.202Z,8.98
2023-06-16T06:01:30.152Z,11.40
2023-06-16T06:04:00.656Z,9.18
2023-06-16T06:06:30.424Z,8.65
2023-06-16T06:09:00.337Z,8.60
2023-06-16T06:11:29.831Z,7.68
2023-06-16T06:13:59.554Z,7.38
2023-06-16T06:16:30.696Z,9.88
2023-06-16T06:19:00.157Z,6.80
2023-06-16T06:21:29.512Z,11.02
2023-06-16T06:23:59.062Z,7.30
2023-06-16T06:26:28.732Z,10.68
2023-06-16T06:28:58.553Z,8.43
2023-06-16T06:31:29.630Z,11.20
2023-06-16T06:34:00.158Z,13.88
2023-06-16T06:36:30.437Z,6.90
2023-06-16T06:39:02.167Z,10.60
2023-06-16T06:41:31.792Z,16.05
2023-06-16T06:44:09.008Z,7.47
2023-06-16T06:46:59.781Z,9.05
2023-06-16T06:49:29.190Z,9.77
2023-06-16T06:51:58.571Z,6.32
2023-06-16T06:54:28.051Z,8.48
2023-06-16T06:56:57.407Z,7.40
2023-06-16T06:59:26.910Z,6.90
2023-06-16T07:01:57.853Z,7.10
2023-06-16T07:04:27.641Z,8.93
2023-06-16T07:06:57.334Z,11.35
2023-06-16T07:09:31.209Z,7.57
2023-06-16T07:12:01.183Z,10.55
2023-06-16T07:14:32.120Z,7.05
2023-06-16T07:17:04.093Z,9.25
2023-06-16T07:19:33.468Z,6.65
2023-06-16T07:22:03.223Z,6.60
2023-06-16T07:24:32.521Z,7.30
2023-06-16T07:27:03.288Z,6.57
2023-06-16T07:29:32.585Z,8.75
2023-06-16T07:32:03.672Z,6.88
2023-06-16T07:34:34.273Z,7.07
2023-06-16T07:37:05.942Z,7.35
2023-06-16T07:39:35.539Z,6.68
2023-06-16T07:42:04.974Z,6.72
2023-06-16T07:44:34.435Z,8.35
2023-06-16T07:47:05.275Z,6.75
2023-06-16T07:49:34.613Z,8.02
2023-06-16T07:52:04.214Z,7.40
2023-06-16T07:54:33.531Z,8.88
2023-06-16T07:57:04.653Z,7.05
2023-06-16T07:59:34.439Z,8.48
2023-06-16T08:02:07.960Z,9.65
2023-06-16T08:04:37.968Z,10.88
2023-06-16T08:07:07.897Z,6.95
2023-06-16T08:09:37.267Z,8.85
2023-06-16T08:12:07.307Z,7.00
2023-06-16T08:14:36.666Z,6.63
2023-06-16T08:17:08.111Z,8.63
2023-06-16T08:19:37.473Z,9.52
2023-06-16T08:22:07.438Z,6.88
2023-06-16T08:24:36.981Z,8.98
2023-06-16T08:27:08.054Z,10.50
2023-06-16T08:29:37.656Z,6.93
2023-06-16T08:32:09.382Z,7.70
2023-06-16T08:34:38.847Z,9.50
2023-06-16T08:37:20.724Z,10.55
2023-06-16T08:39:58.073Z,7.25
2023-06-16T08:42:27.839Z,9.50
2023-06-16T08:44:58.553Z,8.63
2023-06-16T08:47:30.154Z,7.38
2023-06-16T08:49:59.731Z,7.22
2023-06-16T08:52:43.394Z,6.13
2023-06-16T08:55:16.550Z,5.32
2023-06-16T08:57:49.425Z,5.20
2023-06-16T09:00:20.639Z,6.15
2023-06-16T09:02:58.252Z,5.53
2023-06-16T09:05:33.203Z,7.75
2023-06-16T09:08:04.863Z,6.63
2023-06-16T09:10:35.962Z,7.15
2023-06-16T09:13:05.590Z,6.55
2023-06-16T09:15:36.994Z,6.22
2023-06-16T09:18:13.572Z,6.63
2023-06-16T09:20:54.726Z,6.75
2023-06-16T09:23:31.067Z,6.57
2023-06-16T09:26:01.099Z,7.10
2023-06-16T09:28:37.169Z,6.90
2023-06-16T09:31:12.383Z,6.65
2023-06-16T09:33:44.669Z,6.28
2023-06-16T09:36:15.246Z,6.18
2023-06-16T09:38:44.609Z,6.60
2023-06-16T09:41:17.724Z,8.57
2023-06-16T09:43:47.583Z,7.88
2023-06-16T09:46:17.520Z,5.88
2023-06-16T09:48:51.808Z,5.70
2023-06-16T09:51:23.346Z,5.70
2023-06-16T09:53:53.373Z,5.75
2023-06-16T09:56:22.884Z,7.60
2023-06-16T09:58:52.572Z,7.45
2023-06-16T10:01:24.152Z,6.53
2023-06-16T10:03:57.510Z,7.28
2023-06-16T10:06:29.822Z,5.82
2023-06-16T10:09:00.447Z,6.07
2023-06-16T10:11:32.487Z,9.82
2023-06-16T10:14:07.227Z,7.18
2023-06-16T10:16:37.803Z,10.40
2023-06-16T10:19:10.520Z,7.30
2023-06-16T10:21:40.050Z,5.50
2023-06-16T10:24:10.523Z,7.10
2023-06-16T10:26:40.273Z,5.30
2023-06-16T10:29:10.050Z,7.28
2023-06-16T10:31:40.900Z,6.13
2023-06-16T10:34:20.040Z,10.05
2023-06-16T10:36:52.776Z,6.57
2023-06-16T10:39:22.359Z,6.22
2023-06-16T10:41:54.307Z,5.38
2023-06-16T10:44:27.666Z,5.32
2023-06-16T10:47:29.274Z,4.90
2023-06-16T10:50:03.797Z,5.65
2023-06-16T10:52:35.535Z,6.22
2023-06-16T10:55:35.245Z,3.95
2023-06-16T10:58:25.017Z,4.80
2023-06-16T11:01:25.879Z,4.38
2023-06-16T11:04:03.721Z,5.75
2023-06-16T11:07:16.453Z,3.85
2023-06-16T11:10:02.620Z,3.13
2023-06-16T11:12:32.208Z,3.58
2023-06-16T11:15:01.963Z,3.20
2023-06-16T11:17:31.916Z,3.13
2023-06-16T11:20:02.849Z,2.95
2023-06-16T11:22:33.565Z,5.25
2023-06-16T11:25:05.097Z,5.68
2023-06-16T11:27:53.574Z,5.70
2023-06-16T11:30:55.594Z,4.05
2023-06-16T11:33:58.552Z,3.22
2023-06-16T11:36:53.286Z,5.00
2023-06-16T11:39:22.685Z,4.90
2023-06-16T11:42:01.788Z,3.63
2023-06-16T11:44:31.813Z,3.88
2023-06-16T11:47:01.292Z,4.38
2023-06-16T11:49:34.693Z,3.72
2023-06-16T11:52:06.295Z,5.97
2023-06-16T11:54:36.059Z,4.85
2023-06-16T11:57:07.722Z,4.00
2023-06-16T11:59:37.519Z,3.70
2023-06-16T12:02:10.118Z,3.85
2023-06-16T12:04:39.742Z,3.83
2023-06-16T12:07:09.306Z,3.80
2023-06-16T12:09:39.126Z,3.80
2023-06-16T12:12:11.857Z,3.60
2023-06-16T12:14:41.464Z,3.58
2023-06-16T12:17:10.960Z,5.07
2023-06-16T12:19:43.640Z,3.90
2023-06-16T12:22:13.104Z,3.78
2023-06-16T12:24:42.855Z,3.20
2023-06-16T12:27:25.465Z,3.88
2023-06-16T12:30:01.609Z,3.83
2023-06-16T12:32:32.886Z,3.83
2023-06-16T12:35:02.852Z,4.60
2023-06-16T12:37:33.138Z,3.80
2023-06-16T12:40:07.641Z,5.38
2023-06-16T12:42:38.567Z,4.65
2023-06-16T12:45:09.961Z,3.70
2023-06-16T12:47:41.110Z,3.88
2023-06-16T12:50:11.518Z,4.35
2023-06-16T12:52:40.923Z,3.58
2023-06-16T12:55:10.765Z,4.20
2023-06-16T12:57:41.966Z,6.57
2023-06-16T13:00:13.160Z,4.28
2023-06-16T13:02:44.322Z,3.75
2023-06-16T13:05:13.710Z,3.75
2023-06-16T13:07:43.174Z,3.63
2023-06-16T13:10:12.744Z,4.10
2023-06-16T13:12:43.577Z,3.72
2023-06-16T13:15:13.342Z,4.50
2023-06-16T13:17:42.736Z,4.57
2023-06-16T13:20:13.852Z,4.13
2023-06-16T13:22:43.468Z,5.47
2023-06-16T13:25:14.370Z,5.05
2023-06-16T13:27:45.566Z,4.22
2023-06-16T13:30:15.760Z,3.97
2023-06-16T13:32:45.114Z,4.10
2023-06-16T13:35:14.523Z,3.92
2023-06-16T13:37:43.846Z,4.15
2023-06-16T13:40:13.965Z,4.43
2023-06-16T13:42:44.684Z,4.47
2023-06-16T13:45:14.034Z,6.00
2023-06-16T13:47:43.396Z,4.65
2023-06-16T13:50:13.307Z,5.50
2023-06-16T13:52:42.696Z,4.82
2023-06-16T13:55:12.423Z,8.07
2023-06-16T13:57:41.799Z,5.20
2023-06-16T14:00:14.065Z,7.82
2023-06-16T14:02:43.520Z,6.60
2023-06-16T14:05:12.958Z,5.78
2023-06-16T14:07:42.149Z,8.20
2023-06-16T14:10:12.125Z,6.57
2023-06-16T14:12:44.220Z,6.22
2023-06-16T14:15:15.265Z,6.45
2023-06-16T14:17:44.905Z,6.43
2023-06-16T14:20:15.399Z,6.40
2023-06-16T14:22:45.030Z,6.00
2023-06-16T14:25:14.824Z,9.68
2023-06-16T14:27:44.064Z,7.00
2023-06-16T14:30:17.422Z,6.75
2023-06-16T14:32:46.886Z,7.72
2023-06-16T14:35:16.360Z,6.40
2023-06-16T14:37:45.862Z,7.40
2023-06-16T14:40:15.238Z,7.68
2023-06-16T14:42:44.576Z,7.05
2023-06-16T14:45:15.790Z,6.60
2023-06-16T14:47:45.129Z,7.30
2023-06-16T14:50:16.478Z,6.80
2023-06-16T14:52:46.117Z,6.60
2023-06-16T14:55:15.576Z,7.10
2023-06-16T14:57:44.916Z,7.30
2023-06-16T15:00:16.981Z,6.97
2023-06-16T15:02:46.337Z,6.32
2023-06-16T15:05:16.297Z,5.93
2023-06-16T15:07:45.565Z,6.55
2023-06-16T15:10:15.063Z,7.35
2023-06-16T15:12:44.407Z,8.38
2023-06-16T15:15:16.218Z,6.07
2023-06-16T15:17:45.708Z,6.93
2023-06-16T15:20:15.743Z,5.60
2023-06-16T15:22:45.067Z,5.55
2023-06-16T15:25:14.375Z,5.95
2023-06-16T15:27:44.124Z,7.32
2023-06-16T15:30:15.881Z,9.23
2023-06-16T15:32:45.418Z,5.35
2023-06-16T15:35:14.758Z,5.85
2023-06-16T15:37:44.045Z,6.90
2023-06-16T15:40:14.643Z,5.72
2023-06-16T15:42:48.490Z,7.05
2023-06-16T15:45:19.246Z,6.45
2023-06-16T15:47:48.620Z,5.40
2023-06-16T15:50:18.375Z,5.72
2023-06-16T15:52:47.911Z,6.10
2023-06-16T15:55:17.329Z,5.68
2023-06-16T15:57:46.912Z,5.40
2023-06-16T16:00:17.098Z,4.78
2023-06-16T16:02:48.581Z,5.13
2023-06-16T16:05:18.264Z,5.68
2023-06-16T16:07:47.833Z,8.80
2023-06-16T16:10:17.354Z,5.82
2023-06-16T16:12:46.904Z,5.63
2023-06-16T16:15:16.245Z,5.60
2023-06-16T16:17:45.673Z,5.88
2023-06-16T16:20:16.641Z,8.10
2023-06-16T16:22:45.973Z,7.55
2023-06-16T16:25:15.236Z,6.45
2023-06-16T16:27:44.606Z,5.85
2023-06-16T16:30:16.766Z,6.85
2023-06-16T16:32:46.088Z,6.18
2023-06-16T16:35:16.914Z,6.05
2023-06-16T16:37:46.430Z,8.27
2023-06-16T16:40:15.875Z,5.93
2023-06-16T16:42:45.316Z,6.18
2023-06-16T16:45:14.752Z,6.35
2023-06-16T16:47:44.056Z,7.82
2023-06-16T16:50:13.707Z,6.30
2023-06-16T16:52:44.443Z,7.53
2023-06-16T16:55:30.001Z,7.88
2023-06-16T16:58:03.377Z,7.07
2023-06-16T17:00:33.275Z,7.10
2023-06-16T17:03:02.636Z,6.30
2023-06-16T17:05:32.327Z,8.05
2023-06-16T17:08:03.172Z,6.22
2023-06-16T17:10:32.519Z,6.30
2023-06-16T17:13:02.047Z,6.72
2023-06-16T17:15:31.507Z,6.55
2023-06-16T17:18:01.012Z,7.10
2023-06-16T17:20:30.357Z,6.85
2023-06-16T17:23:00.282Z,7.78
2023-06-16T17:25:31.413Z,9.25
2023-06-16T17:28:01.047Z,7.85
2023-06-16T17:30:30.289Z,9.23
2023-06-16T17:33:00.907Z,7.53
2023-06-16T17:35:31.358Z,8.52
2023-06-16T17:38:01.670Z,9.32
2023-06-16T17:40:34.255Z,9.98
2023-06-16T17:43:04.926Z,10.45
2023-06-16T17:45:34.832Z,12.43
2023-06-16T17:48:04.854Z,9.85
2023-06-16T17:50:34.428Z,8.85
2023-06-16T17:53:04.676Z,9.40
2023-06-16T17:55:35.535Z,7.93
2023-06-16T17:58:05.176Z,8.50
2023-06-16T18:00:35.066Z,7.47
2023-06-16T18:03:04.803Z,7.38
2023-06-16T18:05:34.593Z,8.10
2023-06-16T18:08:04.473Z,8.55
2023-06-16T18:10:35.864Z,7.93
2023-06-16T18:13:05.233Z,7.53
2023-06-16T18:15:34.876Z,9.88
2023-06-16T18:18:05.979Z,10.48
2023-06-16T18:20:35.620Z,10.20
2023-06-16T18:23:05.392Z,14.65
2023-06-16T18:25:36.750Z,14.55
2023-06-16T18:28:08.672Z,15.20
2023-06-16T18:30:38.605Z,14.93
2023-06-16T18:33:08.668Z,13.98
2023-06-16T18:35:38.417Z,14.15
2023-06-16T18:38:09.120Z,10.02
2023-06-16T18:40:40.544Z,9.23
2023-06-16T18:43:10.598Z,9.35
2023-06-16T18:45:40.534Z,9.23
2023-06-16T18:48:10.565Z,13.73
2023-06-16T18:50:40.401Z,11.55
2023-06-16T18:53:10.232Z,10.82
2023-06-16T18:55:44.655Z,10.00
2023-06-16T18:58:14.717Z,11.90
2023-06-16T19:00:44.677Z,9.88
2023-06-16T19:03:14.840Z,13.82
2023-06-16T19:05:44.835Z,10.70
2023-06-16T19:08:16.441Z,10.05
2023-06-16T19:10:47.996Z,10.63
2023-06-16T19:13:18.508Z,10.60
2023-06-16T19:15:48.899Z,11.15
2023-06-16T19:18:19.085Z,10.80
2023-06-16T19:20:48.791Z,10.77
2023-06-16T19:23:18.620Z,12.48
2023-06-16T19:25:49.553Z,11.63
2023-06-16T19:28:22.251Z,9.52
2023-06-16T19:30:51.735Z,9.65
2023-06-16T19:33:21.587Z,10.40
2023-06-16T19:35:52.522Z,11.18
2023-06-16T19:38:23.369Z,11.25
2023-06-16T19:40:55.633Z,9.98
2023-06-16T19:43:25.017Z,10.15
2023-06-16T19:45:54.379Z,10.68
2023-06-16T19:48:23.884Z,10.25
2023-06-16T19:50:53.404Z,10.45
2023-06-16T19:53:22.839Z,10.50
2023-06-16T19:55:52.754Z,10.38
2023-06-16T19:58:23.905Z,12.50
2023-06-16T20:00:53.663Z,15.95
2023-06-16T20:03:23.168Z,10.55
2023-06-16T20:05:52.734Z,13.38
2023-06-16T20:08:22.471Z,15.05
2023-06-16T20:10:52.153Z,16.63
2023-06-16T20:13:26.548Z,16.38
2023-06-16T20:15:56.733Z,15.80
2023-06-16T20:18:28.878Z,14.45
2023-06-16T20:21:00.960Z,14.30
2023-06-16T20:23:30.857Z,14.93
2023-06-16T20:26:00.556Z,15.23
2023-06-16T20:28:31.633Z,15.32
2023-06-16T20:31:01.179Z,12.90
2023-06-16T20:33:30.821Z,12.98
2023-06-16T20:36:01.388Z,13.00
2023-06-16T20:38:30.936Z,13.65
2023-06-16T20:41:00.563Z,14.00
2023-06-16T20:43:31.441Z,13.75
2023-06-16T20:46:01.943Z,14.40
2023-06-16T20:48:32.665Z,14.35
2023-06-16T20:51:02.048Z,13.75
2023-06-16T20:53:35.480Z,14.45
2023-06-16T20:56:05.093Z,12.88
2023-06-16T20:58:37.435Z,12.23
2023-06-16T21:01:09.569Z,12.80
2023-06-16T21:03:39.035Z,12.15
2023-06-16T21:06:08.710Z,12.13
2023-06-16T21:08:40.214Z,13.80
2023-06-16T21:11:09.644Z,13.65
2023-06-16T21:13:41.751Z,13.65
2023-06-16T21:16:12.958Z,13.35
2023-06-16T21:18:45.267Z,12.55
2023-06-16T21:21:14.768Z,12.93
2023-06-16T21:23:44.200Z,12.02
2023-06-16T21:26:14.022Z,11.82
2023-06-16T21:28:44.682Z,12.73
2023-06-16T21:31:14.145Z,12.77
2023-06-16T21:33:43.792Z,13.00
2023-06-16T21:36:13.564Z,13.40
2023-06-16T21:38:45.146Z,14.45
2023-06-16T21:41:14.505Z,13.27
2023-06-16T21:43:45.387Z,13.80
2023-06-16T21:46:14.714Z,14.30
2023-06-16T21:48:43.944Z,13.35
2023-06-16T21:51:14.766Z,14.13
2023-06-16T21:53:44.684Z,13.73
2023-06-16T21:56:14.259Z,14.70
2023-06-16T21:58:45.399Z,13.43
2023-06-16T22:01:14.757Z,13.15
2023-06-16T22:03:44.272Z,13.93
2023-06-16T22:06:13.794Z,12.77
2023-06-16T22:08:43.149Z,13.45
2023-06-16T22:11:13.898Z,13.20
2023-06-16T22:13:44.686Z,12.95
2023-06-16T22:16:14.294Z,13.07
2023-06-16T22:18:43.747Z,12.80
2023-06-16T22:21:13.425Z,22.38
2023-06-16T22:23:42.990Z,14.95
2023-06-16T22:26:12.777Z,12.20
2023-06-16T22:28:42.523Z,13.25
2023-06-16T22:31:13.590Z,12.43
2023-06-16T22:33:42.994Z,13.50
2023-06-16T22:36:12.491Z,13.40
2023-06-16T22:38:41.807Z,12.82
2023-06-16T22:41:12.750Z,13.05
2023-06-16T22:43:42.198Z,13.32
2023-06-16T22:46:12.927Z,12.20
2023-06-16T22:48:43.067Z,13.32
2023-06-16T22:51:13.136Z,13.15
2023-06-16T22:53:42.980Z,13.15
2023-06-16T22:56:12.682Z,13.15
2023-06-16T22:58:42.048Z,14.43
2023-06-16T23:01:13.322Z,17.92
2023-06-16T23:03:42.871Z,14.73
2023-06-16T23:06:12.255Z,15.35
2023-06-16T23:08:41.795Z,14.45
2023-06-16T23:11:11.159Z,14.80
2023-06-16T23:13:40.439Z,14.65
2023-06-16T23:16:10.277Z,13.68
2023-06-16T23:18:41.574Z,14.90
2023-06-16T23:21:10.943Z,15.35
2023-06-16T23:23:40.329Z,16.20
2023-06-16T23:26:10.997Z,17.02
2023-06-16T23:28:40.694Z,16.73
2023-06-16T23:31:10.348Z,16.90
2023-06-16T23:33:41.392Z,16.67
2023-06-16T23:36:11.630Z,17.23
2023-06-16T23:38:41.564Z,17.55
2023-06-16T23:41:11.023Z,17.23
2023-06-16T23:43:40.561Z,17.77
2023-06-16T23:46:10.114Z,18.95
2023-06-16T23:48:41.068Z,17.70
2023-06-16T23:51:10.461Z,18.30
2023-06-16T23:53:39.890Z,19.25
2023-06-16T23:56:09.557Z,18.92
2023-06-16T23:58:39.157Z,19.17
